Time;durP1;ratioP1;P1;durP2;ratioP2;P2;SDS_P1;SDS_P2;PMS_P1;PMS_P2;Temp;Humidity;BMP_temperature;BMP_pressure;BME280_temperature;BME280_humidity;BME280_pressure;Samples;Min_cycle;Max_cycle;Signal;HPM_P1;HPM_P2
2024/04/12 00:01:17;;;;;;;6.15;3.35;;;;;;;;;;5260037;27;20005;-61
2024/04/12 00:03:43;;;;;;;5.35;3.58;;;;;;;;;;5306078;27;20005;-61
2024/04/12 00:06:15;;;;;;;6.70;3.53;;;;;;;;;;5277182;27;20002;-62
2024/04/12 00:08:46;;;;;;;5.97;3.80;;;;;;;;;;5269271;27;20019;-62
2024/04/12 00:11:11;;;;;;;5.57;3.60;;;;;;;;;;5273369;27;20445;-61
2024/04/12 00:13:40;;;;;;;5.20;3.85;;;;;;;;;;5287055;27;20057;-61
2024/04/12 00:16:09;;;;;;;5.90;3.83;;;;;;;;;;5278358;27;20014;-60
2024/04/12 00:18:36;;;;;;;5.50;3.50;;;;;;;;;;5274028;27;20293;-60
2024/04/12 00:21:01;;;;;;;5.30;3.75;;;;;;;;;;5271886;27;20157;-60
2024/04/12 00:23:27;;;;;;;4.40;3.13;;;;;;;;;;5287380;26;20017;-63
2024/04/12 00:25:59;;;;;;;4.50;3.47;;;;;;;;;;5282549;27;20080;-61
2024/04/12 00:28:25;;;;;;;5.72;3.83;;;;;;;;;;5290378;26;20002;-64
2024/04/12 00:30:51;;;;;;;4.55;3.50;;;;;;;;;;5271604;27;20021;-61
2024/04/12 00:33:19;;;;;;;5.60;3.38;;;;;;;;;;5281010;26;20654;-60
2024/04/12 00:35:49;;;;;;;5.65;3.55;;;;;;;;;;5304684;26;20412;-64
2024/04/12 00:38:16;;;;;;;4.93;3.50;;;;;;;;;;5302187;27;20016;-62
2024/04/12 00:40:45;;;;;;;4.93;3.38;;;;;;;;;;5273252;27;20006;-60
2024/04/12 00:43:15;;;;;;;5.45;3.50;;;;;;;;;;5250869;26;20005;-61
2024/04/12 00:45:43;;;;;;;4.28;3.17;;;;;;;;;;5299889;26;20002;-60
2024/04/12 00:48:09;;;;;;;5.50;3.47;;;;;;;;;;5301340;26;20020;-62
2024/04/12 00:50:36;;;;;;;6.45;3.22;;;;;;;;;;5280694;27;19999;-60
2024/04/12 00:53:03;;;;;;;5.30;3.53;;;;;;;;;;5305487;27;20014;-63
2024/04/12 00:55:32;;;;;;;4.72;3.17;;;;;;;;;;5288887;26;20006;-62
2024/04/12 00:57:59;;;;;;;4.53;3.40;;;;;;;;;;5297832;26;20001;-61
2024/04/12 01:00:34;;;;;;;5.50;3.55;;;;;;;;;;5255159;27;20518;-61
2024/04/12 01:03:14;;;;;;;4.50;3.60;;;;;;;;;;5275948;26;20433;-65
2024/04/12 01:05:39;;;;;;;6.60;3.75;;;;;;;;;;5297393;26;20084;-61
2024/04/12 01:08:06;;;;;;;7.15;3.47;;;;;;;;;;5298874;27;20010;-61
2024/04/12 01:10:31;;;;;;;6.47;3.65;;;;;;;;;;5302569;27;20526;-62
2024/04/12 01:12:57;;;;;;;4.75;3.88;;;;;;;;;;5305427;27;20128;-61
2024/04/12 01:15:23;;;;;;;5.18;3.25;;;;;;;;;;5288709;27;20336;-61
2024/04/12 01:17:49;;;;;;;5.15;3.60;;;;;;;;;;5271876;27;20081;-61
2024/04/12 01:20:16;;;;;;;5.32;3.97;;;;;;;;;;5271091;26;20317;-61
2024/04/12 01:22:45;;;;;;;5.05;3.30;;;;;;;;;;5305503;27;20024;-61
2024/04/12 01:25:10;;;;;;;4.50;3.53;;;;;;;;;;5287243;26;20021;-60
2024/04/12 01:27:39;;;;;;;4.10;3.33;;;;;;;;;;5284393;27;20018;-64
2024/04/12 01:30:05;;;;;;;5.32;3.65;;;;;;;;;;5270145;27;20003;-60
2024/04/12 01:32:31;;;;;;;6.18;3.58;;;;;;;;;;5271820;27;20017;-60
2024/04/12 01:34:56;;;;;;;5.05;3.42;;;;;;;;;;5292186;26;20133;-62
2024/04/12 01:37:21;;;;;;;5.00;3.40;;;;;;;;;;5271639;27;20003;-60
2024/04/12 01:39:47;;;;;;;4.97;3.83;;;;;;;;;;5274024;27;20002;-62
2024/04/12 01:42:13;;;;;;;4.82;3.33;;;;;;;;;;5297258;27;20329;-61
2024/04/12 01:44:38;;;;;;;4.50;3.22;;;;;;;;;;5298002;26;20365;-62
2024/04/12 01:47:04;;;;;;;4.60;3.40;;;;;;;;;;5271367;27;20006;-64
2024/04/12 01:49:33;;;;;;;4.97;3.80;;;;;;;;;;5271249;27;20010;-60
2024/04/12 01:51:59;;;;;;;6.22;3.70;;;;;;;;;;5295059;26;20018;-60
2024/04/12 01:54:25;;;;;;;5.28;3.30;;;;;;;;;;5293468;27;20391;-62
2024/04/12 01:56:50;;;;;;;4.38;3.25;;;;;;;;;;5305322;27;20013;-61
2024/04/12 01:59:17;;;;;;;4.55;3.30;;;;;;;;;;5290028;27;20132;-60
2024/04/12 02:01:45;;;;;;;5.00;3.63;;;;;;;;;;5302503;27;20339;-60
2024/04/12 02:04:15;;;;;;;4.28;3.35;;;;;;;;;;5294755;26;20002;-60
2024/04/12 02:06:42;;;;;;;5.53;3.38;;;;;;;;;;5281601;26;20014;-60
2024/04/12 02:09:13;;;;;;;4.07;3.55;;;;;;;;;;5294146;27;20014;-63
2024/04/12 02:11:39;;;;;;;4.75;3.65;;;;;;;;;;5273900;27;20537;-60
2024/04/12 02:14:04;;;;;;;4.93;3.60;;;;;;;;;;5279062;27;20002;-60
2024/04/12 02:16:31;;;;;;;4.43;3.55;;;;;;;;;;5301466;26;20010;-61
2024/04/12 02:18:56;;;;;;;4.85;3.20;;;;;;;;;;5307984;27;20005;-62
2024/04/12 02:21:22;;;;;;;4.65;3.53;;;;;;;;;;5306409;27;20020;-63
2024/04/12 02:23:48;;;;;;;4.35;3.25;;;;;;;;;;5304399;26;20005;-60
2024/04/12 02:26:15;;;;;;;6.43;3.42;;;;;;;;;;5306548;27;20038;-61
2024/04/12 02:28:41;;;;;;;5.32;3.50;;;;;;;;;;5278381;26;20006;-61
2024/04/12 02:31:09;;;;;;;5.32;3.47;;;;;;;;;;5288232;27;20077;-62
2024/04/12 02:33:35;;;;;;;4.63;3.30;;;;;;;;;;5282097;26;20008;-60
2024/04/12 02:36:01;;;;;;;4.38;3.30;;;;;;;;;;5283060;26;20002;-59
2024/04/12 02:38:27;;;;;;;5.80;3.30;;;;;;;;;;5276314;27;20006;-62
2024/04/12 02:40:53;;;;;;;5.07;3.90;;;;;;;;;;5287960;27;20539;-60
2024/04/12 02:43:24;;;;;;;4.85;3.47;;;;;;;;;;5307359;27;20025;-63
2024/04/12 02:45:50;;;;;;;4.88;3.08;;;;;;;;;;5279360;26;20078;-61
2024/04/12 02:48:17;;;;;;;5.50;3.60;;;;;;;;;;5301405;27;20005;-60
2024/04/12 02:50:43;;;;;;;4.95;3.40;;;;;;;;;;5282827;27;20406;-60
2024/04/12 02:53:17;;;;;;;4.88;3.65;;;;;;;;;;5302710;26;20053;-61
2024/04/12 02:55:42;;;;;;;4.80;3.22;;;;;;;;;;5287539;26;20484;-60
2024/04/12 02:58:08;;;;;;;4.85;3.60;;;;;;;;;;5307002;26;20050;-60
2024/04/12 03:00:37;;;;;;;4.38;3.30;;;;;;;;;;5294725;26;20020;-60
2024/04/12 03:03:04;;;;;;;4.93;3.17;;;;;;;;;;5287081;26;20014;-59
2024/04/12 03:05:29;;;;;;;6.35;3.47;;;;;;;;;;5288391;26;20080;-61
2024/04/12 03:07:55;;;;;;;3.58;3.13;;;;;;;;;;5289474;26;20468;-63
2024/04/12 03:10:23;;;;;;;4.38;3.40;;;;;;;;;;5289192;26;20002;-60
2024/04/12 03:12:51;;;;;;;6.80;4.13;;;;;;;;;;5299894;26;20014;-59
2024/04/12 03:15:20;;;;;;;5.80;3.47;;;;;;;;;;5284455;26;20006;-60
2024/04/12 03:17:46;;;;;;;5.35;3.55;;;;;;;;;;5307783;26;20332;-61
2024/04/12 03:20:15;;;;;;;4.72;3.58;;;;;;;;;;5293602;26;20452;-61
2024/04/12 03:22:41;;;;;;;4.57;3.58;;;;;;;;;;5301309;26;20013;-63
2024/04/12 03:25:06;;;;;;;5.28;3.45;;;;;;;;;;5288148;26;20006;-62
2024/04/12 03:27:32;;;;;;;5.38;3.47;;;;;;;;;;5292706;26;20325;-61
2024/04/12 03:29:58;;;;;;;3.88;3.17;;;;;;;;;;5283351;26;20437;-61
2024/04/12 03:32:32;;;;;;;6.00;3.40;;;;;;;;;;5289827;26;20012;-65
2024/04/12 03:34:59;;;;;;;4.85;3.35;;;;;;;;;;5309684;26;20451;-61
2024/04/12 03:37:36;;;;;;;4.07;3.40;;;;;;;;;;5295428;26;20453;-62
2024/04/12 03:40:16;;;;;;;4.35;3.65;;;;;;;;;;5292743;26;20001;-61
2024/04/12 03:42:42;;;;;;;4.35;3.50;;;;;;;;;;5286834;26;20030;-62
2024/04/12 03:45:13;;;;;;;4.88;3.85;;;;;;;;;;5296132;26;20408;-61
2024/04/12 03:47:39;;;;;;;5.22;3.83;;;;;;;;;;5282576;26;20039;-60
2024/04/12 03:50:13;;;;;;;6.40;3.22;;;;;;;;;;5299482;26;19997;-61
2024/04/12 03:52:41;;;;;;;4.28;3.67;;;;;;;;;;5296745;26;20189;-61
2024/04/12 03:55:09;;;;;;;4.13;3.35;;;;;;;;;;5301261;26;20002;-60
2024/04/12 03:57:38;;;;;;;4.22;3.53;;;;;;;;;;5293611;26;20078;-62
2024/04/12 04:00:10;;;;;;;4.22;3.38;;;;;;;;;;5266873;27;20013;-60
2024/04/12 04:02:35;;;;;;;4.50;3.50;;;;;;;;;;5286161;26;20477;-61
2024/04/12 04:05:13;;;;;;;5.38;3.53;;;;;;;;;;5288522;26;20376;-61
2024/04/12 04:07:39;;;;;;;6.03;3.50;;;;;;;;;;5294087;26;20002;-63
2024/04/12 04:10:10;;;;;;;4.78;3.80;;;;;;;;;;5305677;26;20655;-61
2024/04/12 04:12:44;;;;;;;4.25;3.63;;;;;;;;;;5288597;26;20089;-60
2024/04/12 04:15:10;;;;;;;4.55;3.45;;;;;;;;;;5294464;26;20009;-61
2024/04/12 04:17:36;;;;;;;5.05;3.70;;;;;;;;;;5311355;26;20016;-59
2024/04/12 04:20:06;;;;;;;5.30;3.60;;;;;;;;;;5313326;26;20017;-61
2024/04/12 04:24:59;;;;;;;6.57;3.83;;;;;;;;;;5302212;26;20411;-62
2024/04/12 04:27:26;;;;;;;5.55;3.85;;;;;;;;;;5292499;26;20465;-61
2024/04/12 04:29:51;;;;;;;5.65;3.70;;;;;;;;;;5287742;26;19994;-63
2024/04/12 04:32:20;;;;;;;5.57;3.92;;;;;;;;;;5309840;26;20102;-60
2024/04/12 04:34:46;;;;;;;5.18;3.53;;;;;;;;;;5314355;26;20009;-61
2024/04/12 04:37:12;;;;;;;6.10;4.32;;;;;;;;;;5281098;26;20022;-61
2024/04/12 04:39:39;;;;;;;6.63;4.47;;;;;;;;;;5290355;26;20009;-60
2024/04/12 04:42:05;;;;;;;5.85;4.03;;;;;;;;;;5310397;26;20350;-61
2024/04/12 04:44:31;;;;;;;6.13;4.05;;;;;;;;;;5281033;26;20017;-65
2024/04/12 04:46:57;;;;;;;4.53;3.72;;;;;;;;;;5294048;26;20006;-61
2024/04/12 04:49:23;;;;;;;5.85;4.35;;;;;;;;;;5291788;26;20315;-61
2024/04/12 04:51:48;;;;;;;4.60;4.00;;;;;;;;;;5292265;26;20013;-61
2024/04/12 04:54:14;;;;;;;5.75;3.95;;;;;;;;;;5304098;26;20040;-60
2024/04/12 04:56:43;;;;;;;5.30;3.85;;;;;;;;;;5300758;26;20402;-60
2024/04/12 04:59:09;;;;;;;5.32;4.25;;;;;;;;;;5277896;26;20021;-60
2024/04/12 05:01:34;;;;;;;5.20;4.15;;;;;;;;;;5304293;26;20432;-60
2024/04/12 05:04:00;;;;;;;5.78;3.95;;;;;;;;;;5291543;26;20070;-60
2024/04/12 05:06:27;;;;;;;5.82;4.10;;;;;;;;;;5303978;26;20021;-61
2024/04/12 05:09:00;;;;;;;6.22;4.45;;;;;;;;;;5293436;26;20076;-66
2024/04/12 05:11:29;;;;;;;6.30;4.22;;;;;;;;;;5299294;26;20021;-61
2024/04/12 05:13:56;;;;;;;6.75;4.82;;;;;;;;;;5286996;26;20020;-61
2024/04/12 05:16:22;;;;;;;7.13;4.60;;;;;;;;;;5308852;26;20033;-61
2024/04/12 05:19:08;;;;;;;6.47;4.68;;;;;;;;;;5268227;26;19997;-59
2024/04/12 05:21:35;;;;;;;6.47;4.70;;;;;;;;;;5284911;26;20081;-61
2024/04/12 05:24:09;;;;;;;7.40;4.93;;;;;;;;;;5283712;26;20005;-61
2024/04/12 05:26:42;;;;;;;6.47;4.85;;;;;;;;;;5291748;26;20032;-61
2024/04/12 05:29:11;;;;;;;6.63;4.63;;;;;;;;;;5298113;26;20017;-61
2024/04/12 05:31:36;;;;;;;8.02;4.90;;;;;;;;;;5289069;26;20072;-61
2024/04/12 05:34:04;;;;;;;9.07;5.03;;;;;;;;;;5290276;26;20009;-62
2024/04/12 05:36:32;;;;;;;8.23;5.10;;;;;;;;;;5296390;26;20089;-61
2024/04/12 05:38:58;;;;;;;7.55;4.80;;;;;;;;;;5286830;26;20131;-62
2024/04/12 05:41:28;;;;;;;10.63;5.55;;;;;;;;;;5276834;27;20001;-62
2024/04/12 05:43:54;;;;;;;;;;;;;;;;;;5254850;27;19997;-60
2024/04/12 05:46:22;;;;;;;8.40;5.37;;;;;;;;;;5295879;26;20013;-61
2024/04/12 05:48:47;;;;;;;8.02;5.40;;;;;;;;;;5301566;26;20268;-61
2024/04/12 05:51:12;;;;;;;10.23;5.05;;;;;;;;;;5278371;26;20016;-61
2024/04/12 05:53:39;;;;;;;9.68;5.32;;;;;;;;;;5297281;26;20001;-62
2024/04/12 05:56:25;;;;;;;7.60;5.30;;;;;;;;;;5295228;26;19998;-63
2024/04/12 05:58:51;;;;;;;8.55;5.60;;;;;;;;;;5290529;26;20006;-60
2024/04/12 06:01:16;;;;;;;9.65;5.55;;;;;;;;;;5296579;26;20352;-61
2024/04/12 06:03:48;;;;;;;10.38;5.75;;;;;;;;;;5305920;26;20006;-61
2024/04/12 06:06:13;;;;;;;9.82;5.90;;;;;;;;;;5295654;26;20002;-60
2024/04/12 06:08:41;;;;;;;10.57;5.57;;;;;;;;;;5295115;26;20076;-60
2024/04/12 06:11:09;;;;;;;12.75;6.18;;;;;;;;;;5298707;26;20075;-62
2024/04/12 06:13:40;;;;;;;8.65;5.72;;;;;;;;;;5305343;26;20001;-62
2024/04/12 06:16:07;;;;;;;9.73;5.93;;;;;;;;;;5311001;26;20012;-63
2024/04/12 06:18:33;;;;;;;14.13;6.43;;;;;;;;;;5259959;26;20136;-61
2024/04/12 06:20:58;;;;;;;14.52;8.05;;;;;;;;;;5290997;26;20017;-62
2024/04/12 06:23:23;;;;;;;11.30;6.70;;;;;;;;;;5287582;26;20006;-67
2024/04/12 06:25:49;;;;;;;14.35;6.57;;;;;;;;;;5298075;26;20005;-61
2024/04/12 06:28:15;;;;;;;12.10;6.43;;;;;;;;;;5295536;26;20071;-63
2024/04/12 06:30:44;;;;;;;11.93;6.00;;;;;;;;;;5289667;26;20027;-62
2024/04/12 06:33:12;;;;;;;11.93;6.22;;;;;;;;;;5293861;26;20107;-62
2024/04/12 06:35:39;;;;;;;11.63;6.47;;;;;;;;;;5311812;26;20001;-61
2024/04/12 06:38:08;;;;;;;13.80;6.90;;;;;;;;;;5295593;26;20369;-62
2024/04/12 06:40:34;;;;;;;10.63;6.40;;;;;;;;;;5306142;26;20013;-67
2024/04/12 06:43:05;;;;;;;9.70;5.65;;;;;;;;;;5293555;26;20397;-66
2024/04/12 06:45:41;;;;;;;10.52;5.85;;;;;;;;;;5307276;26;20070;-63
2024/04/12 06:48:16;;;;;;;13.13;6.22;;;;;;;;;;5302888;26;20005;-61
2024/04/12 06:50:52;;;;;;;11.32;5.70;;;;;;;;;;5254429;26;20021;-63
2024/04/12 06:53:19;;;;;;;7.85;5.80;;;;;;;;;;5292792;26;20002;-59
2024/04/12 06:55:48;;;;;;;12.35;6.03;;;;;;;;;;5296037;26;20017;-60
2024/04/12 06:58:13;;;;;;;12.73;6.28;;;;;;;;;;5283690;26;20008;-59
2024/04/12 07:00:38;;;;;;;9.82;5.75;;;;;;;;;;5291795;26;20024;-64
2024/04/12 07:03:07;;;;;;;9.57;5.15;;;;;;;;;;5302438;26;20009;-65
2024/04/12 07:05:33;;;;;;;12.20;5.70;;;;;;;;;;5265721;26;19997;-63
2024/04/12 07:08:01;;;;;;;9.80;5.20;;;;;;;;;;5289834;26;20017;-64
2024/04/12 07:10:27;;;;;;;9.35;5.22;;;;;;;;;;5265312;26;20085;-69
2024/04/12 07:12:55;;;;;;;8.10;5.20;;;;;;;;;;5308429;26;20488;-62
2024/04/12 07:15:21;;;;;;;8.65;5.75;;;;;;;;;;5290774;26;20036;-60
2024/04/12 07:17:47;;;;;;;11.38;6.10;;;;;;;;;;5297440;26;20017;-65
2024/04/12 07:20:21;;;;;;;9.70;5.25;;;;;;;;;;5299264;26;20352;-67
2024/04/12 07:22:49;;;;;;;11.13;5.35;;;;;;;;;;5293601;26;20013;-62
2024/04/12 07:25:15;;;;;;;11.00;5.53;;;;;;;;;;5292019;26;20037;-64
2024/04/12 07:27:41;;;;;;;10.32;5.80;;;;;;;;;;5296105;26;19995;-63
2024/04/12 07:30:07;;;;;;;9.20;5.03;;;;;;;;;;5290732;26;20044;-69
2024/04/12 07:32:35;;;;;;;10.57;4.78;;;;;;;;;;5292161;26;20376;-70
2024/04/12 07:35:08;;;;;;;10.70;5.30;;;;;;;;;;5299440;26;20148;-65
2024/04/12 07:37:36;;;;;;;9.85;4.65;;;;;;;;;;5296506;26;20077;-61
2024/04/12 07:40:23;;;;;;;11.57;4.90;;;;;;;;;;5291576;26;20357;-66
2024/04/12 07:42:49;;;;;;;11.82;4.80;;;;;;;;;;5297705;26;19998;-61
2024/04/12 07:45:17;;;;;;;6.10;4.35;;;;;;;;;;5298787;26;20341;-69
2024/04/12 07:50:47;;;;;;;7.30;4.35;;;;;;;;;;5167793;27;20105;-62
2024/04/12 07:53:21;;;;;;;9.20;4.32;;;;;;;;;;5264814;26;20009;-64
2024/04/12 07:55:55;;;;;;;7.85;4.63;;;;;;;;;;5291212;26;20074;-65
2024/04/12 07:58:21;;;;;;;7.55;4.57;;;;;;;;;;5287893;26;20045;-63
2024/04/12 08:00:46;;;;;;;7.82;4.53;;;;;;;;;;5296740;26;20002;-61
2024/04/12 08:03:15;;;;;;;8.48;4.50;;;;;;;;;;5289075;26;20014;-63
2024/04/12 08:08:28;;;;;;;8.15;4.75;;;;;;;;;;5295765;26;20192;-62
2024/04/12 08:11:11;;;;;;;7.03;4.78;;;;;;;;;;5300776;26;20014;-63
2024/04/12 08:13:44;;;;;;;8.80;4.63;;;;;;;;;;5290686;26;20001;-61
2024/04/12 08:16:14;;;;;;;7.15;4.68;;;;;;;;;;5288082;26;20016;-61
2024/04/12 08:18:43;;;;;;;7.15;4.47;;;;;;;;;;5289615;26;20006;-61
2024/04/12 08:21:12;;;;;;;6.95;4.40;;;;;;;;;;5279610;26;20006;-63
2024/04/12 08:23:43;;;;;;;7.07;4.70;;;;;;;;;;5280787;26;20028;-62
2024/04/12 08:26:11;;;;;;;7.05;4.93;;;;;;;;;;5291910;26;20006;-62
2024/04/12 08:28:40;;;;;;;5.90;4.13;;;;;;;;;;5284303;26;20002;-62
2024/04/12 08:31:18;;;;;;;7.45;4.65;;;;;;;;;;5265807;26;20436;-63
2024/04/12 08:33:45;;;;;;;5.93;4.00;;;;;;;;;;5300400;26;20053;-60
2024/04/12 08:36:14;;;;;;;7.13;4.70;;;;;;;;;;5289637;26;20080;-61
2024/04/12 08:38:54;;;;;;;7.93;4.38;;;;;;;;;;5287558;26;20336;-61
2024/04/12 08:41:23;;;;;;;8.10;4.43;;;;;;;;;;5296540;26;20330;-63
2024/04/12 08:43:54;;;;;;;6.03;4.20;;;;;;;;;;5284453;26;20095;-64
2024/04/12 08:46:24;;;;;;;6.65;4.40;;;;;;;;;;5251908;26;20005;-61
2024/04/12 08:48:50;;;;;;;5.90;4.07;;;;;;;;;;5286754;26;20012;-65
2024/04/12 08:51:21;;;;;;;6.35;4.43;;;;;;;;;;5292645;26;20333;-61
2024/04/12 08:53:47;;;;;;;6.57;4.22;;;;;;;;;;5258447;27;20318;-62
2024/04/12 08:56:17;;;;;;;10.23;4.18;;;;;;;;;;5261343;27;20016;-60
2024/04/12 08:58:48;;;;;;;6.22;4.15;;;;;;;;;;5273210;26;20054;-59
2024/04/12 09:01:13;;;;;;;7.47;3.88;;;;;;;;;;5259955;27;20052;-57
2024/04/12 09:03:40;;;;;;;6.95;4.32;;;;;;;;;;5298319;26;20012;-59
2024/04/12 09:06:05;;;;;;;5.63;3.92;;;;;;;;;;5285614;26;20001;-62
2024/04/12 09:08:33;;;;;;;5.70;4.15;;;;;;;;;;5289661;26;20016;-62
2024/04/12 09:10:59;;;;;;;6.95;3.90;;;;;;;;;;5243762;26;20030;-66
2024/04/12 09:13:27;;;;;;;7.90;4.40;;;;;;;;;;5291107;26;20017;-61
2024/04/12 09:15:52;;;;;;;7.38;4.05;;;;;;;;;;5282625;26;20076;-62
2024/04/12 09:18:26;;;;;;;7.80;4.43;;;;;;;;;;5283588;26;19994;-64
2024/04/12 09:21:01;;;;;;;6.82;4.18;;;;;;;;;;5282765;26;20006;-62
2024/04/12 09:23:41;;;;;;;6.72;4.30;;;;;;;;;;5287022;26;20720;-64
2024/04/12 09:28:51;;;;;;;6.85;4.10;;;;;;;;;;5286978;26;20521;-60
2024/04/12 09:34:29;;;;;;;5.78;4.47;;;;;;;;;;5288349;26;20005;-64
2024/04/12 09:37:01;;;;;;;8.18;4.25;;;;;;;;;;5259515;26;19997;-63
2024/04/12 09:40:03;;;;;;;4.90;3.72;;;;;;;;;;5256511;27;20016;-62
2024/04/12 09:45:16;;;;;;;6.32;3.85;;;;;;;;;;5285189;26;20012;-67
2024/04/12 10:37:23;;;;;;;6.75;3.80;;;;;;;;;;5294971;26;20018;-62
2024/04/12 10:39:51;;;;;;;8.93;4.70;;;;;;;;;;5280410;26;20046;-62
2024/04/12 10:42:20;;;;;;;9.73;4.65;;;;;;;;;;5290735;26;20010;-61
2024/04/12 10:44:47;;;;;;;6.55;3.92;;;;;;;;;;5284166;26;20539;-61
2024/04/12 10:47:13;;;;;;;7.65;4.03;;;;;;;;;;5282002;26;20005;-61
2024/04/12 10:49:42;;;;;;;7.85;4.20;;;;;;;;;;5287313;26;20482;-64
2024/04/12 10:52:08;;;;;;;5.67;4.17;;;;;;;;;;5286691;26;20071;-59
2024/04/12 10:54:34;;;;;;;5.97;3.38;;;;;;;;;;5254707;27;23006;-61
2024/04/12 10:57:02;;;;;;;5.88;4.22;;;;;;;;;;5285929;26;20003;-60
2024/04/12 10:59:27;;;;;;;7.07;4.10;;;;;;;;;;5289321;26;20444;-62
2024/04/12 11:01:57;;;;;;;7.65;3.83;;;;;;;;;;5295166;26;20144;-62
2024/04/12 11:04:22;;;;;;;6.00;3.72;;;;;;;;;;5255422;27;20132;-61
2024/04/12 11:06:50;;;;;;;9.85;4.07;;;;;;;;;;5283336;26;20040;-61
2024/04/12 11:09:17;;;;;;;6.20;3.75;;;;;;;;;;5283768;26;20002;-61
2024/04/12 11:11:43;;;;;;;5.18;3.67;;;;;;;;;;5269468;26;20085;-62
2024/04/12 11:14:17;;;;;;;5.85;3.95;;;;;;;;;;5285340;26;20428;-60
2024/04/12 11:31:14;;;;;;;9.23;3.97;;;;;;;;;;5284011;26;20363;-67
2024/04/12 11:33:43;;;;;;;5.45;4.10;;;;;;;;;;5286139;26;19994;-64
2024/04/12 11:36:10;;;;;;;5.95;3.50;;;;;;;;;;5282586;26;20014;-64
2024/04/12 11:38:39;;;;;;;5.63;3.53;;;;;;;;;;5275184;26;20016;-62
2024/04/12 11:41:05;;;;;;;5.40;3.83;;;;;;;;;;5286934;26;20024;-61
2024/04/12 11:43:34;;;;;;;5.22;3.90;;;;;;;;;;5254861;26;20087;-64
2024/04/12 11:46:01;;;;;;;5.80;3.60;;;;;;;;;;5253368;26;20002;-65
2024/04/12 11:48:31;;;;;;;6.35;3.20;;;;;;;;;;5285057;26;20016;-64
2024/04/12 11:50:57;;;;;;;6.38;3.72;;;;;;;;;;5286517;26;20006;-67
2024/04/12 11:53:22;;;;;;;6.57;3.83;;;;;;;;;;5302303;27;20016;-65
2024/04/12 11:55:48;;;;;;;6.30;3.60;;;;;;;;;;5305164;27;20001;-60
2024/04/12 11:58:14;;;;;;;5.35;3.40;;;;;;;;;;5303867;26;20002;-65
2024/04/12 12:00:41;;;;;;;5.20;3.90;;;;;;;;;;5305077;27;20009;-61
2024/04/12 12:03:06;;;;;;;5.30;4.00;;;;;;;;;;5284162;26;20005;-64
2024/04/12 12:05:37;;;;;;;5.07;3.80;;;;;;;;;;5302714;26;20013;-60
2024/04/12 12:08:04;;;;;;;7.00;3.50;;;;;;;;;;5278507;26;20141;-59
2024/04/12 12:10:34;;;;;;;7.22;3.80;;;;;;;;;;5300583;27;20001;-58
2024/04/12 12:13:01;;;;;;;8.38;4.05;;;;;;;;;;5297265;27;20367;-61
2024/04/12 12:15:26;;;;;;;5.47;3.45;;;;;;;;;;5288670;27;20002;-60
2024/04/12 12:17:52;;;;;;;4.78;3.72;;;;;;;;;;5274647;27;19998;-61
2024/04/12 12:20:18;;;;;;;8.23;3.97;;;;;;;;;;5288076;27;20072;-61
2024/04/12 12:22:43;;;;;;;5.60;3.55;;;;;;;;;;5305490;27;20006;-61
2024/04/12 12:25:09;;;;;;;5.22;3.40;;;;;;;;;;5305618;27;20071;-61
2024/04/12 12:27:34;;;;;;;5.63;3.50;;;;;;;;;;5271824;27;20001;-59
2024/04/12 12:30:02;;;;;;;6.97;3.95;;;;;;;;;;5277614;27;19998;-60
2024/04/12 12:32:31;;;;;;;4.85;3.60;;;;;;;;;;5270411;27;20002;-62
2024/04/12 12:34:57;;;;;;;6.85;3.60;;;;;;;;;;5265676;27;19998;-59
2024/04/12 12:37:24;;;;;;;6.63;3.55;;;;;;;;;;5271076;27;20002;-59
2024/04/12 12:39:51;;;;;;;4.97;3.70;;;;;;;;;;5285156;27;20023;-60
2024/04/12 12:42:16;;;;;;;5.22;3.65;;;;;;;;;;5288405;26;20028;-61
2024/04/12 12:44:43;;;;;;;5.65;3.50;;;;;;;;;;5296956;27;19997;-65
2024/04/12 12:47:09;;;;;;;6.45;3.50;;;;;;;;;;5292596;27;20511;-61
2024/04/12 12:50:01;;;;;;;5.60;4.10;;;;;;;;;;5273810;26;20034;-62
2024/04/12 12:52:22;;;;;;;6.47;3.58;;;;;;;;;;5245171;27;20113;-61
2024/04/12 12:54:47;;;;;;;6.53;3.55;;;;;;;;;;5270988;27;20069;-61
2024/04/12 12:57:15;;;;;;;5.00;3.30;;;;;;;;;;5271731;27;20029;-61
2024/04/12 12:59:43;;;;;;;6.07;3.28;;;;;;;;;;5274579;27;20007;-65
2024/04/12 13:02:13;;;;;;;4.85;3.35;;;;;;;;;;5286667;26;20001;-66
2024/04/12 13:04:41;;;;;;;6.38;3.60;;;;;;;;;;5283259;26;20469;-63
2024/04/12 13:07:07;;;;;;;5.57;3.50;;;;;;;;;;5284819;26;20018;-62
2024/04/12 13:09:35;;;;;;;5.90;3.33;;;;;;;;;;5284867;26;20001;-61
2024/04/12 13:12:04;;;;;;;7.53;3.70;;;;;;;;;;5284438;26;20017;-62
2024/04/12 13:14:29;;;;;;;5.17;3.50;;;;;;;;;;5281563;26;20038;-62
2024/04/12 13:16:55;;;;;;;5.13;3.58;;;;;;;;;;5281506;26;22123;-64
2024/04/12 13:19:21;;;;;;;6.40;3.70;;;;;;;;;;5275211;27;20017;-66
2024/04/12 13:21:46;;;;;;;7.60;3.22;;;;;;;;;;5288640;26;20024;-62
2024/04/12 13:24:13;;;;;;;6.45;3.50;;;;;;;;;;5285804;26;20120;-65
2024/04/12 13:26:43;;;;;;;5.75;3.50;;;;;;;;;;5279725;26;20011;-62
2024/04/12 13:29:10;;;;;;;5.20;3.30;;;;;;;;;;5284171;26;20009;-61
2024/04/12 13:31:39;;;;;;;5.43;3.55;;;;;;;;;;5281482;26;20006;-62
2024/04/12 13:34:08;;;;;;;5.23;3.17;;;;;;;;;;5280529;26;19998;-64
2024/04/12 13:36:34;;;;;;;4.95;3.00;;;;;;;;;;5282671;26;20578;-63
2024/04/12 13:39:00;;;;;;;4.22;3.08;;;;;;;;;;5275495;26;19994;-66
2024/04/12 13:41:26;;;;;;;5.80;3.20;;;;;;;;;;5279746;26;20071;-62
2024/04/12 13:43:51;;;;;;;4.55;3.22;;;;;;;;;;5269545;26;20137;-65
2024/04/12 13:51:49;;;;;;;5.03;3.10;;;;;;;;;;5253702;26;20768;-60
2024/04/12 13:54:20;;;;;;;4.30;3.22;;;;;;;;;;5281730;26;20017;-61
2024/04/12 13:56:58;;;;;;;7.07;3.35;;;;;;;;;;5279055;26;20001;-64
2024/04/12 13:59:24;;;;;;;4.88;3.05;;;;;;;;;;5254704;26;20067;-65
2024/04/12 14:01:49;;;;;;;7.50;3.63;;;;;;;;;;5286091;26;20009;-61
2024/04/12 14:04:18;;;;;;;7.78;3.50;;;;;;;;;;5255914;27;20020;-62
2024/04/12 14:06:46;;;;;;;7.60;3.45;;;;;;;;;;5284853;26;20009;-64
2024/04/12 14:09:21;;;;;;;4.90;3.45;;;;;;;;;;5285269;26;20016;-63
2024/04/12 14:11:46;;;;;;;5.82;2.92;;;;;;;;;;5285367;26;20452;-62
2024/04/12 14:14:11;;;;;;;5.80;3.60;;;;;;;;;;5285843;26;19994;-63
2024/04/12 14:16:41;;;;;;;7.25;3.40;;;;;;;;;;5283648;26;20086;-61
2024/04/12 14:19:27;;;;;;;6.40;3.38;;;;;;;;;;5284205;26;20332;-63
2024/04/12 14:21:53;;;;;;;6.43;3.40;;;;;;;;;;5275895;26;20002;-67
2024/04/12 14:27:05;;;;;;;4.35;3.33;;;;;;;;;;5272270;26;20018;-64
2024/04/12 14:29:31;;;;;;;5.32;3.40;;;;;;;;;;5282901;26;20006;-69
2024/04/12 14:31:56;;;;;;;4.13;3.05;;;;;;;;;;5290867;27;20006;-61
2024/04/12 14:34:22;;;;;;;7.25;3.03;;;;;;;;;;5298888;26;20004;-69
2024/04/12 14:36:47;;;;;;;5.50;3.30;;;;;;;;;;5280985;27;20012;-65
2024/04/12 14:39:15;;;;;;;5.88;3.25;;;;;;;;;;5299789;27;20453;-61
2024/04/12 14:41:44;;;;;;;7.40;3.95;;;;;;;;;;5275185;27;20017;-64
2024/04/12 14:44:09;;;;;;;4.95;3.67;;;;;;;;;;5275969;27;20021;-71
2024/04/12 14:46:35;;;;;;;4.53;3.13;;;;;;;;;;5304547;27;20528;-63
2024/04/12 14:49:00;;;;;;;7.10;3.60;;;;;;;;;;5279106;26;20021;-62
2024/04/12 14:51:27;;;;;;;8.88;3.90;;;;;;;;;;5287466;26;20013;-63
2024/04/12 14:53:53;;;;;;;5.60;3.70;;;;;;;;;;5276850;27;20006;-62
2024/04/12 14:56:18;;;;;;;5.75;3.47;;;;;;;;;;5266962;27;20017;-64
2024/04/12 14:58:43;;;;;;;7.80;3.75;;;;;;;;;;5276856;27;20341;-66
2024/04/12 15:01:09;;;;;;;5.55;3.65;;;;;;;;;;5285715;27;20002;-63
2024/04/12 15:52:11;;;;;;;5.80;3.97;;;;;;;;;;5303584;27;20427;-64
2024/04/12 15:54:51;;;;;;;5.93;3.90;;;;;;;;;;5303346;27;20006;-62
2024/04/12 16:10:59;;;;;;;7.00;4.10;;;;;;;;;;5291347;27;20008;-62
2024/04/12 16:13:26;;;;;;;7.05;4.00;;;;;;;;;;5295086;26;20010;-61
2024/04/12 16:15:51;;;;;;;5.90;3.97;;;;;;;;;;5278241;27;20002;-62
2024/04/12 16:18:17;;;;;;;7.30;4.18;;;;;;;;;;5280524;27;20021;-62
2024/04/12 16:20:42;;;;;;;6.22;4.00;;;;;;;;;;5289513;27;20021;-62
2024/04/12 16:23:10;;;;;;;7.28;4.32;;;;;;;;;;5308739;27;20035;-62
2024/04/12 16:25:35;;;;;;;7.45;4.22;;;;;;;;;;5308771;27;20016;-62
2024/04/12 16:28:00;;;;;;;7.03;4.43;;;;;;;;;;5282858;26;19998;-62
2024/04/12 16:30:26;;;;;;;10.88;4.80;;;;;;;;;;5282230;26;20494;-63
2024/04/12 16:32:51;;;;;;;10.07;4.32;;;;;;;;;;5285730;26;20628;-64
2024/04/12 16:35:17;;;;;;;7.32;4.07;;;;;;;;;;5284659;26;20010;-62
2024/04/12 16:37:42;;;;;;;7.55;4.55;;;;;;;;;;5284420;26;20553;-63
2024/04/12 16:40:08;;;;;;;10.90;4.43;;;;;;;;;;5280765;26;20013;-64
2024/04/12 16:42:33;;;;;;;12.40;4.63;;;;;;;;;;5282139;26;20321;-62
2024/04/12 16:44:58;;;;;;;9.68;4.57;;;;;;;;;;5285594;26;20440;-62
2024/04/12 16:47:25;;;;;;;8.32;4.43;;;;;;;;;;5270395;26;20445;-62
2024/04/12 16:49:50;;;;;;;8.93;4.47;;;;;;;;;;5282218;26;20005;-63
2024/04/12 16:52:16;;;;;;;6.28;4.25;;;;;;;;;;5282299;26;20012;-61
2024/04/12 16:54:42;;;;;;;9.02;4.80;;;;;;;;;;5280802;26;20023;-63
2024/04/12 16:57:09;;;;;;;7.65;4.82;;;;;;;;;;5282431;26;19998;-63
2024/04/12 16:59:34;;;;;;;8.55;5.10;;;;;;;;;;5281239;26;19999;-62
2024/04/12 17:01:59;;;;;;;7.97;4.90;;;;;;;;;;5282115;26;20006;-62
2024/04/12 17:04:25;;;;;;;7.43;4.88;;;;;;;;;;5282775;26;20006;-62
2024/04/12 17:06:50;;;;;;;11.05;5.40;;;;;;;;;;5281197;26;19998;-62
2024/04/12 17:09:19;;;;;;;8.70;4.80;;;;;;;;;;5281352;26;20033;-61
2024/04/12 17:11:44;;;;;;;8.95;5.40;;;;;;;;;;5282271;26;20320;-61
2024/04/12 17:14:10;;;;;;;9.88;5.20;;;;;;;;;;5281245;26;20005;-61
2024/04/12 17:16:38;;;;;;;8.77;5.05;;;;;;;;;;5281479;26;19997;-60
2024/04/12 17:19:07;;;;;;;8.10;5.07;;;;;;;;;;5284031;26;20046;-61